createdAt,value
2023-01-13T00:02:10.966Z,7.09
2023-01-13T00:07:12.472Z,7.06
2023-01-13T00:12:13.912Z,6.97
2023-01-13T00:17:15.343Z,6.91
2023-01-13T00:22:16.830Z,6.89
2023-01-13T00:27:18.319Z,6.89
2023-01-13T00:32:19.740Z,6.96
2023-01-13T00:37:21.366Z,6.87
2023-01-13T00:42:41.157Z,7.02
2023-01-13T00:47:42.590Z,7.03
2023-01-13T00:52:44.066Z,7.04
2023-01-13T00:57:45.471Z,7.03
2023-01-13T01:02:46.922Z,6.95
2023-01-13T01:07:48.564Z,6.78
2023-01-13T01:12:50.837Z,6.56
2023-01-13T01:17:52.329Z,6.56
2023-01-13T01:22:53.728Z,6.62
2023-01-13T01:27:55.308Z,6.65
2023-01-13T01:32:57.288Z,6.59
2023-01-13T01:37:58.727Z,6.67
2023-01-13T01:43:18.747Z,6.50
2023-01-13T01:48:20.379Z,6.39
2023-01-13T01:53:24.620Z,6.22
2023-01-13T01:58:31.167Z,6.06
2023-01-13T02:03:35.063Z,5.96
2023-01-13T02:08:39.078Z,5.89
2023-01-13T02:13:40.544Z,5.90
2023-01-13T02:19:22.456Z,5.99
2023-01-13T02:24:55.963Z,5.94
2023-01-13T02:30:27.448Z,5.99
2023-01-13T02:35:47.410Z,6.04
2023-01-13T02:41:23.207Z,6.17
2023-01-13T02:46:48.560Z,6.33
2023-01-13T02:51:52.643Z,6.32
2023-01-13T02:56:56.663Z,6.39
2023-01-13T03:01:59.548Z,6.38
2023-01-13T03:07:12.777Z,6.31
2023-01-13T03:12:34.470Z,6.23
2023-01-13T03:17:49.663Z,6.25
2023-01-13T03:23:03.168Z,6.12
2023-01-13T03:28:17.884Z,6.18
2023-01-13T03:33:29.484Z,6.21
2023-01-13T03:38:39.241Z,6.21
2023-01-13T03:44:24.888Z,6.11
2023-01-13T03:49:42.488Z,6.21
2023-01-13T03:54:51.945Z,6.20
2023-01-13T03:59:58.825Z,6.10
2023-01-13T04:05:03.530Z,6.10
2023-01-13T04:10:09.080Z,6.17
2023-01-13T04:15:12.442Z,6.20
2023-01-13T04:20:14.637Z,6.20
2023-01-13T04:25:16.311Z,6.18
2023-01-13T04:30:17.964Z,6.27
2023-01-13T04:35:19.548Z,6.29
2023-01-13T04:40:21.383Z,6.25
2023-01-13T04:45:22.873Z,6.17
2023-01-13T04:50:24.729Z,6.01
2023-01-13T04:55:26.317Z,6.07
2023-01-13T05:00:27.757Z,5.92
2023-01-13T05:05:30.392Z,5.90
2023-01-13T05:10:31.980Z,5.94
2023-01-13T05:15:52.456Z,5.88
2023-01-13T05:20:53.940Z,5.97
2023-01-13T05:25:55.535Z,6.03
2023-01-13T05:30:57.080Z,6.00
2023-01-13T05:36:02.294Z,6.05
2023-01-13T05:41:27.035Z,6.10
2023-01-13T05:46:28.542Z,6.10
2023-01-13T05:51:30.035Z,6.05
2023-01-13T05:56:31.551Z,6.02
2023-01-13T06:01:33.236Z,6.10
2023-01-13T06:06:34.688Z,6.07
2023-01-13T06:11:36.094Z,6.12
2023-01-13T06:16:37.725Z,6.06
2023-01-13T06:21:39.860Z,6.04
2023-01-13T06:26:41.547Z,5.95
2023-01-13T06:31:43.349Z,5.88
2023-01-13T06:36:50.426Z,5.90
2023-01-13T06:42:12.783Z,5.90
2023-01-13T06:47:14.472Z,6.00
2023-01-13T06:52:16.063Z,6.05
2023-01-13T06:57:17.592Z,6.07
2023-01-13T07:02:19.466Z,6.02
2023-01-13T07:07:20.987Z,6.03
2023-01-13T07:12:22.395Z,5.98
2023-01-13T07:17:26.788Z,6.06
2023-01-13T07:22:28.252Z,6.11
2023-01-13T07:27:29.739Z,6.17
2023-01-13T07:32:34.549Z,6.19
2023-01-13T07:37:37.602Z,6.26
2023-01-13T07:42:58.130Z,6.32
2023-01-13T07:47:59.670Z,6.46
2023-01-13T07:53:01.322Z,6.47
2023-01-13T07:58:02.788Z,6.52
2023-01-13T08:03:04.835Z,6.44
2023-01-13T08:08:06.330Z,6.48
2023-01-13T08:13:19.574Z,6.32
2023-01-13T08:18:22.232Z,6.40
2023-01-13T08:23:23.742Z,6.43
2023-01-13T08:28:25.413Z,6.53
2023-01-13T08:33:27.671Z,6.53
2023-01-13T08:38:29.129Z,6.51
2023-01-13T08:43:30.552Z,6.33
2023-01-13T08:48:32.063Z,6.28
2023-01-13T08:53:33.561Z,6.36
2023-01-13T08:58:35.029Z,6.46
2023-01-13T09:03:36.505Z,6.40
2023-01-13T09:08:38.000Z,6.33
2023-01-13T09:13:39.620Z,6.36
2023-01-13T09:18:41.027Z,6.47
2023-01-13T09:23:42.492Z,6.48
2023-01-13T09:28:43.906Z,6.59
2023-01-13T09:34:03.828Z,6.55
2023-01-13T09:39:05.874Z,6.50
2023-01-13T09:44:13.595Z,6.47
2023-01-13T09:49:28.016Z,6.46
2023-01-13T09:54:32.042Z,6.56
2023-01-13T09:59:36.306Z,6.43
2023-01-13T10:04:37.886Z,6.35
2023-01-13T10:09:54.035Z,6.30
2023-01-13T10:14:56.097Z,6.08
2023-01-13T10:20:16.038Z,6.28
2023-01-13T10:25:30.252Z,6.51
2023-01-13T10:30:41.954Z,6.45
2023-01-13T10:35:59.361Z,6.44
2023-01-13T10:41:19.356Z,6.36
2023-01-13T10:46:20.964Z,6.37
2023-01-13T10:51:25.455Z,6.26
2023-01-13T10:56:30.704Z,6.23
2023-01-13T11:01:32.291Z,6.16
2023-01-13T11:06:35.315Z,6.14
2023-01-13T11:11:43.437Z,6.14
2023-01-13T11:16:53.460Z,6.12
2023-01-13T11:22:11.174Z,6.23
2023-01-13T11:27:21.004Z,6.20
2023-01-13T11:32:24.510Z,6.05
2023-01-13T11:37:33.378Z,6.00
2023-01-13T11:42:55.876Z,5.86
2023-01-13T11:48:00.189Z,5.89
2023-01-13T11:53:09.599Z,5.86
2023-01-13T11:58:50.330Z,5.93
2023-01-13T12:04:18.180Z,5.93
2023-01-13T12:09:42.489Z,6.05
2023-01-13T12:14:49.776Z,6.18
2023-01-13T12:19:51.448Z,6.25
2023-01-13T12:25:05.722Z,6.28
2023-01-13T12:30:22.710Z,6.31
2023-01-13T12:35:53.225Z,6.34
2023-01-13T12:41:24.507Z,6.30
2023-01-13T12:46:25.974Z,6.34
2023-01-13T12:51:37.859Z,6.29
2023-01-13T12:56:44.791Z,6.29
2023-01-13T13:01:48.714Z,6.25
2023-01-13T13:07:14.093Z,6.19
2023-01-13T13:12:49.443Z,6.22
2023-01-13T13:18:08.595Z,6.15
2023-01-13T13:23:39.073Z,6.08
2023-01-13T13:28:53.580Z,6.04
2023-01-13T13:34:25.740Z,5.99
2023-01-13T13:39:49.150Z,6.10
2023-01-13T13:45:09.949Z,6.02
2023-01-13T13:50:16.806Z,5.95
2023-01-13T13:55:21.860Z,6.13
2023-01-13T14:00:33.249Z,6.17
2023-01-13T14:05:36.165Z,6.14
2023-01-13T14:10:40.229Z,6.06
2023-01-13T14:15:42.010Z,6.08
2023-01-13T14:20:44.156Z,6.10
2023-01-13T14:25:51.083Z,6.08
2023-01-13T14:30:53.933Z,6.19
2023-01-13T14:36:04.493Z,6.23
2023-01-13T14:41:24.176Z,6.19
2023-01-13T14:46:39.732Z,6.19
2023-01-13T14:51:41.333Z,6.20
2023-01-13T14:56:51.032Z,6.21
2023-01-13T15:01:54.227Z,6.36
2023-01-13T15:06:57.700Z,6.31
2023-01-13T15:12:00.228Z,6.25
2023-01-13T15:17:02.824Z,6.30
2023-01-13T15:22:04.360Z,6.39
2023-01-13T15:27:19.687Z,6.34
2023-01-13T15:32:21.691Z,6.32
2023-01-13T15:37:25.480Z,6.24
2023-01-13T15:42:45.549Z,6.20
2023-01-13T15:47:48.187Z,6.16
2023-01-13T15:52:49.631Z,6.14
2023-01-13T15:57:51.157Z,6.18
2023-01-13T16:02:52.741Z,6.16
2023-01-13T16:07:54.289Z,6.07
2023-01-13T16:12:55.914Z,6.08
2023-01-13T16:18:00.285Z,6.06
2023-01-13T16:23:01.748Z,5.95
2023-01-13T16:28:03.501Z,5.96
2023-01-13T16:33:05.095Z,6.04
2023-01-13T16:38:06.577Z,6.06
2023-01-13T16:43:12.276Z,6.11
2023-01-13T16:48:20.284Z,6.02
2023-01-13T16:53:21.763Z,6.07
2023-01-13T16:58:23.397Z,6.16
2023-01-13T17:03:24.940Z,6.16
2023-01-13T17:08:26.478Z,6.15
2023-01-13T17:13:28.220Z,6.11
2023-01-13T17:18:29.953Z,6.15
2023-01-13T17:23:31.668Z,6.24
2023-01-13T17:28:33.222Z,6.23
2023-01-13T17:33:37.094Z,6.40
2023-01-13T17:38:38.611Z,6.39
2023-01-13T17:43:40.152Z,6.43
2023-01-13T17:48:41.585Z,6.49
2023-01-13T17:53:45.433Z,6.48
2023-01-13T17:58:46.900Z,6.54
2023-01-13T18:03:49.437Z,6.50
2023-01-13T18:08:51.154Z,6.58
2023-01-13T18:13:57.416Z,6.59
2023-01-13T18:19:18.435Z,6.57
2023-01-13T18:24:38.598Z,6.59
2023-01-13T18:29:40.085Z,6.61
2023-01-13T18:34:41.608Z,6.52
2023-01-13T18:39:43.057Z,6.56
2023-01-13T18:44:44.583Z,6.57
2023-01-13T18:49:46.221Z,6.54
2023-01-13T18:54:47.763Z,6.59
2023-01-13T18:59:49.402Z,6.55
2023-01-13T19:04:50.987Z,6.38
2023-01-13T19:09:55.600Z,6.28
2023-01-13T19:14:58.407Z,6.22
2023-01-13T19:20:00.610Z,6.12
2023-01-13T19:25:03.689Z,6.10
2023-01-13T19:30:06.010Z,6.09
2023-01-13T19:35:07.870Z,6.11
2023-01-13T19:40:10.359Z,6.12
2023-01-13T19:45:26.566Z,6.20
2023-01-13T19:50:28.126Z,6.31
2023-01-13T19:55:31.667Z,6.33
2023-01-13T20:00:33.329Z,6.33
2023-01-13T20:05:34.842Z,6.31
2023-01-13T20:10:37.601Z,6.23
2023-01-13T20:15:39.991Z,6.19
2023-01-13T20:20:41.538Z,6.27
2023-01-13T20:25:43.136Z,6.21
2023-01-13T20:30:44.688Z,6.21
2023-01-13T20:35:46.193Z,6.24
2023-01-13T20:40:47.615Z,6.22
2023-01-13T20:45:49.806Z,6.21
2023-01-13T20:50:57.753Z,6.19
2023-01-13T20:55:59.285Z,6.28
2023-01-13T21:01:01.352Z,6.23
2023-01-13T21:06:02.978Z,6.17
2023-01-13T21:11:06.072Z,6.31
2023-01-13T21:16:09.800Z,6.26
2023-01-13T21:21:11.578Z,6.26
2023-01-13T21:26:15.417Z,6.27
2023-01-13T21:31:18.101Z,6.22
2023-01-13T21:36:19.636Z,6.05
2023-01-13T21:41:41.181Z,6.20
2023-01-13T21:47:01.014Z,6.17
2023-01-13T21:52:02.447Z,6.17
2023-01-13T21:57:03.926Z,6.13
2023-01-13T22:02:25.581Z,6.06
2023-01-13T22:07:28.105Z,5.97
2023-01-13T22:12:30.048Z,5.95
2023-01-13T22:17:31.699Z,5.98
2023-01-13T22:22:36.742Z,5.83
2023-01-13T22:27:43.372Z,5.72
2023-01-13T22:32:45.743Z,5.72
2023-01-13T22:37:47.142Z,5.61
2023-01-13T22:42:48.610Z,5.77
2023-01-13T22:47:50.102Z,5.80
2023-01-13T22:52:51.565Z,5.69
2023-01-13T22:57:53.494Z,5.83
2023-01-13T23:02:54.905Z,5.77
2023-01-13T23:07:56.374Z,5.85
2023-01-13T23:12:57.834Z,5.74
2023-01-13T23:17:59.358Z,5.87
2023-01-13T23:23:00.920Z,5.95
2023-01-13T23:28:02.421Z,5.94
2023-01-13T23:33:03.938Z,5.98
2023-01-13T23:38:05.566Z,5.99
2023-01-13T23:43:07.097Z,6.06
2023-01-13T23:48:08.729Z,5.85
2023-01-13T23:53:10.461Z,5.96
2023-01-13T23:58:12.448Z,5.99
